createdAt,value
2023-03-16T00:13:58.682Z,3.77
2023-03-16T00:29:03.076Z,5.40
2023-03-16T00:44:09.604Z,3.43
2023-03-16T00:59:14.070Z,3.50
2023-03-16T01:14:18.534Z,5.07
2023-03-16T01:29:23.019Z,3.43
2023-03-16T01:44:35.035Z,3.80
2023-03-16T01:59:47.855Z,4.60
2023-03-16T02:14:53.125Z,3.60
2023-03-16T02:30:06.347Z,4.47
2023-03-16T02:45:18.517Z,3.60
2023-03-16T03:00:23.801Z,3.73
2023-03-16T03:15:29.324Z,3.00
2023-03-16T03:30:39.429Z,3.20
2023-03-16T03:45:44.086Z,2.80
2023-03-16T04:00:48.675Z,3.23
2023-03-16T04:15:59.095Z,3.13
2023-03-16T04:31:08.567Z,3.00
2023-03-16T04:46:17.927Z,3.07
2023-03-16T05:01:23.553Z,2.53
2023-03-16T05:16:32.472Z,3.13
2023-03-16T05:31:37.987Z,2.47
2023-03-16T05:46:48.465Z,2.43
2023-03-16T06:01:53.019Z,3.63
2023-03-16T06:17:00.142Z,2.60
2023-03-16T06:32:05.299Z,3.03
2023-03-16T06:47:10.570Z,3.43
2023-03-16T07:02:17.026Z,3.50
2023-03-16T07:17:21.650Z,2.63
2023-03-16T07:32:26.388Z,3.23
2023-03-16T07:47:31.600Z,1.70
2023-03-16T08:02:41.827Z,3.20
2023-03-16T08:17:49.017Z,2.63
2023-03-16T08:33:01.480Z,2.70
2023-03-16T08:48:08.043Z,3.40
2023-03-16T09:03:13.438Z,2.47
2023-03-16T09:18:18.499Z,4.53
2023-03-16T09:33:23.660Z,3.50
2023-03-16T09:48:30.156Z,3.33
2023-03-16T10:03:46.103Z,4.53
2023-03-16T10:18:54.482Z,4.07
2023-03-16T10:34:06.615Z,4.37
2023-03-16T10:49:25.660Z,2.80
2023-03-16T11:04:33.905Z,3.23
2023-03-16T11:19:43.322Z,3.23
2023-03-16T11:34:48.962Z,4.13
2023-03-16T11:50:01.455Z,2.77
2023-03-16T12:05:24.268Z,2.40
2023-03-16T12:20:32.030Z,2.97
2023-03-16T12:35:45.215Z,2.10
2023-03-16T12:50:52.075Z,3.13
2023-03-16T13:05:59.486Z,3.03
2023-03-16T13:21:17.694Z,4.00
2023-03-16T13:36:22.670Z,2.80
2023-03-16T13:51:27.204Z,5.73
2023-03-16T14:06:35.229Z,3.13
2023-03-16T14:21:45.532Z,2.43
2023-03-16T14:36:50.383Z,2.60
2023-03-16T14:51:59.030Z,2.37
2023-03-16T15:07:22.596Z,2.50
2023-03-16T15:22:30.688Z,2.23
2023-03-16T15:37:37.348Z,2.67
2023-03-16T15:52:44.345Z,2.70
2023-03-16T16:07:48.795Z,1.40
2023-03-16T16:22:54.012Z,2.10
2023-03-16T16:37:58.470Z,2.57
2023-03-16T16:53:02.884Z,1.80
2023-03-16T17:08:07.471Z,2.30
2023-03-16T17:23:27.064Z,2.80
2023-03-16T17:38:32.749Z,2.93
2023-03-16T17:53:37.178Z,2.37
2023-03-16T18:08:41.657Z,2.83
2023-03-16T18:23:46.273Z,3.07
2023-03-16T18:38:52.793Z,3.87
2023-03-16T18:53:58.379Z,4.73
2023-03-16T19:09:06.186Z,5.33
2023-03-16T19:24:21.401Z,8.37
2023-03-16T19:39:25.984Z,14.13
2023-03-16T19:54:33.449Z,6.97
2023-03-16T20:09:37.948Z,9.20
2023-03-16T20:24:44.198Z,15.43
2023-03-16T20:39:49.075Z,25.70
2023-03-16T20:54:53.641Z,45.40
2023-03-16T21:09:58.294Z,9.30
2023-03-16T21:25:02.840Z,10.37
2023-03-16T21:40:17.989Z,26.43
2023-03-16T21:55:25.821Z,13.90
2023-03-16T22:10:31.572Z,16.27
2023-03-16T22:25:36.109Z,9.43
2023-03-16T22:40:41.700Z,7.97
2023-03-16T22:55:46.565Z,12.13
2023-03-16T23:10:52.540Z,7.73
2023-03-16T23:25:57.007Z,6.10
2023-03-16T23:41:01.618Z,6.20
2023-03-16T23:56:10.832Z,5.90
